sensor_id;sensor_type;location;lat;lon;timestamp;pressure;altitude;pressure_sealevel;temperature;humidity
78144;BME280;67394;52.522;13.622;2023-12-14T00:01:43;99990.28;;;3.39;100.00
78144;BME280;67394;52.522;13.622;2023-12-14T00:04:09;99991.16;;;3.40;100.00
78144;BME280;67394;52.522;13.622;2023-12-14T00:06:36;99995.34;;;3.39;100.00
78144;BME280;67394;52.522;13.622;2023-12-14T00:09:02;99997.81;;;3.35;100.00
78144;BME280;67394;52.522;13.622;2023-12-14T00:11:29;99999.56;;;3.37;100.00
78144;BME280;67394;52.522;13.622;2023-12-14T00:13:56;100004.53;;;3.33;100.00
78144;BME280;67394;52.522;13.622;2023-12-14T00:16:22;100007.06;;;3.33;100.00
78144;BME280;67394;52.522;13.622;2023-12-14T00:18:49;100006.94;;;3.25;100.00
78144;BME280;67394;52.522;13.622;2023-12-14T00:21:15;100009.47;;;3.25;100.00
78144;BME280;67394;52.522;13.622;2023-12-14T00:23:42;100020.41;;;3.24;100.00
78144;BME280;67394;52.522;13.622;2023-12-14T00:26:08;100023.78;;;3.23;100.00
78144;BME280;67394;52.522;13.622;2023-12-14T00:28:35;100030.53;;;3.22;100.00
78144;BME280;67394;52.522;13.622;2023-12-14T00:31:01;100035.56;;;3.21;100.00
78144;BME280;67394;52.522;13.622;2023-12-14T00:33:28;100030.31;;;3.12;100.00
78144;BME280;67394;52.522;13.622;2023-12-14T00:35:56;100039.50;;;3.08;100.00
78144;BME280;67394;52.522;13.622;2023-12-14T00:38:23;100048.03;;;3.12;100.00
78144;BME280;67394;52.522;13.622;2023-12-14T00:40:49;100048.84;;;3.11;100.00
78144;BME280;67394;52.522;13.622;2023-12-14T00:43:16;100053.81;;;3.05;100.00
78144;BME280;67394;52.522;13.622;2023-12-14T00:45:42;100057.13;;;3.02;100.00
78144;BME280;67394;52.522;13.622;2023-12-14T00:48:09;100057.97;;;3.03;100.00
78144;BME280;67394;52.522;13.622;2023-12-14T00:50:35;100073.91;;;2.99;100.00
78144;BME280;67394;52.522;13.622;2023-12-14T00:53:02;100057.06;;;2.99;100.00
78144;BME280;67394;52.522;13.622;2023-12-14T00:55:28;100078.94;;;2.96;100.00
78144;BME280;67394;52.522;13.622;2023-12-14T00:57:55;100081.47;;;2.96;100.00
78144;BME280;67394;52.522;13.622;2023-12-14T01:00:21;100087.41;;;2.98;100.00
78144;BME280;67394;52.522;13.622;2023-12-14T01:02:48;100080.66;;;2.98;100.00
78144;BME280;67394;52.522;13.622;2023-12-14T01:05:14;100085.56;;;2.90;100.00
78144;BME280;67394;52.522;13.622;2023-12-14T01:07:41;100087.31;;;2.93;100.00
78144;BME280;67394;52.522;13.622;2023-12-14T01:10:08;100095.56;;;2.84;100.00
78144;BME280;67394;52.522;13.622;2023-12-14T01:12:35;100097.13;;;2.79;100.00
78144;BME280;67394;52.522;13.622;2023-12-14T01:15:02;100103.91;;;2.80;100.00
78144;BME280;67394;52.522;13.622;2023-12-14T01:17:28;100107.25;;;2.79;100.00
78144;BME280;67394;52.522;13.622;2023-12-14T01:19:55;100114.78;;;2.75;100.00
78144;BME280;67394;52.522;13.622;2023-12-14T01:22:22;100110.41;;;2.69;100.00
78144;BME280;67394;52.522;13.622;2023-12-14T01:24:48;100121.44;;;2.71;100.00
78144;BME280;67394;52.522;13.622;2023-12-14T01:27:15;100120.53;;;2.69;100.00
78144;BME280;67394;52.522;13.622;2023-12-14T01:29:42;100118.03;;;2.71;100.00
78144;BME280;67394;52.522;13.622;2023-12-14T01:32:08;100126.41;;;2.68;100.00
78144;BME280;67394;52.522;13.622;2023-12-14T01:34:35;100131.38;;;2.64;100.00
78144;BME280;67394;52.522;13.622;2023-12-14T01:37:01;100138.16;;;2.66;100.00
78144;BME280;67394;52.522;13.622;2023-12-14T01:39:28;100138.16;;;2.65;100.00
78144;BME280;67394;52.522;13.622;2023-12-14T01:41:54;100145.66;;;2.62;100.00
78144;BME280;67394;52.522;13.622;2023-12-14T01:44:21;100140.59;;;2.62;100.00
78144;BME280;67394;52.522;13.622;2023-12-14T01:46:49;100140.53;;;2.58;100.00
78144;BME280;67394;52.522;13.622;2023-12-14T01:49:15;100145.59;;;2.58;100.00
78144;BME280;67394;52.522;13.622;2023-12-14T01:51:42;100149.69;;;2.53;100.00
78144;BME280;67394;52.522;13.622;2023-12-14T01:54:08;100153.03;;;2.52;100.00
78144;BME280;67394;52.522;13.622;2023-12-14T01:56:35;100156.38;;;2.51;100.00
78144;BME280;67394;52.522;13.622;2023-12-14T01:59:01;100155.63;;;2.54;100.00
78144;BME280;67394;52.522;13.622;2023-12-14T02:01:52;100168.22;;;2.52;100.00
78144;BME280;67394;52.522;13.622;2023-12-14T02:04:19;100162.25;;;2.50;100.00
78144;BME280;67394;52.522;13.622;2023-12-14T02:06:46;100171.47;;;2.48;100.00
78144;BME280;67394;52.522;13.622;2023-12-14T02:09:13;100174.09;;;2.51;100.00
78144;BME280;67394;52.522;13.622;2023-12-14T02:11:39;100175.69;;;2.48;100.00
78144;BME280;67394;52.522;13.622;2023-12-14T02:14:08;100176.50;;;2.47;100.00
78144;BME280;67394;52.522;13.622;2023-12-14T02:16:35;100174.91;;;2.50;100.00
78144;BME280;67394;52.522;13.622;2023-12-14T02:19:01;100177.41;;;2.49;100.00
78144;BME280;67394;52.522;13.622;2023-12-14T02:21:28;100176.59;;;2.50;100.00
78144;BME280;67394;52.522;13.622;2023-12-14T02:23:55;100177.47;;;2.52;100.00
78144;BME280;67394;52.522;13.622;2023-12-14T02:26:22;100174.00;;;2.48;100.00
78144;BME280;67394;52.522;13.622;2023-12-14T02:28:48;100171.41;;;2.45;100.00
78144;BME280;67394;52.522;13.622;2023-12-14T02:31:15;100168.06;;;2.46;100.00
78144;BME280;67394;52.522;13.622;2023-12-14T02:33:42;100172.22;;;2.44;100.00
78144;BME280;67394;52.522;13.622;2023-12-14T02:36:08;100175.63;;;2.46;100.00
78144;BME280;67394;52.522;13.622;2023-12-14T02:38:35;100178.34;;;2.52;100.00
78144;BME280;67394;52.522;13.622;2023-12-14T02:41:01;100180.75;;;2.48;100.00
78144;BME280;67394;52.522;13.622;2023-12-14T02:43:28;100181.72;;;2.53;100.00
78144;BME280;67394;52.522;13.622;2023-12-14T02:45:55;100184.94;;;2.47;100.00
78144;BME280;67394;52.522;13.622;2023-12-14T02:48:21;100184.84;;;2.44;100.00
78144;BME280;67394;52.522;13.622;2023-12-14T02:50:48;100186.53;;;2.44;100.00
78144;BME280;67394;52.522;13.622;2023-12-14T02:53:15;100186.56;;;2.45;100.00
78144;BME280;67394;52.522;13.622;2023-12-14T02:55:42;100192.44;;;2.43;100.00
78144;BME280;67394;52.522;13.622;2023-12-14T02:58:09;100195.03;;;2.46;100.00
78144;BME280;67394;52.522;13.622;2023-12-14T03:00:36;100203.47;;;2.46;100.00
78144;BME280;67394;52.522;13.622;2023-12-14T03:03:03;100204.50;;;2.53;100.00
78144;BME280;67394;52.522;13.622;2023-12-14T03:05:29;100202.69;;;2.49;100.00
78144;BME280;67394;52.522;13.622;2023-12-14T03:07:56;100205.94;;;2.45;100.00
78144;BME280;67394;52.522;13.622;2023-12-14T03:10:22;100204.28;;;2.45;100.00
78144;BME280;67394;52.522;13.622;2023-12-14T03:12:49;100208.47;;;2.45;100.00
78144;BME280;67394;52.522;13.622;2023-12-14T03:15:17;100212.72;;;2.46;100.00
78144;BME280;67394;52.522;13.622;2023-12-14T03:17:44;100222.69;;;2.40;100.00
78144;BME280;67394;52.522;13.622;2023-12-14T03:20:11;100227.91;;;2.46;100.00
78144;BME280;67394;52.522;13.622;2023-12-14T03:22:37;100232.19;;;2.48;100.00
78144;BME280;67394;52.522;13.622;2023-12-14T03:25:05;100235.47;;;2.46;100.00
78144;BME280;67394;52.522;13.622;2023-12-14T03:27:32;100247.34;;;2.48;100.00
78144;BME280;67394;52.522;13.622;2023-12-14T03:29:59;100244.78;;;2.47;100.00
78144;BME280;67394;52.522;13.622;2023-12-14T03:32:25;100244.00;;;2.49;100.00
78144;BME280;67394;52.522;13.622;2023-12-14T03:34:52;100254.00;;;2.45;100.00
78144;BME280;67394;52.522;13.622;2023-12-14T03:37:18;100256.47;;;2.42;100.00
78144;BME280;67394;52.522;13.622;2023-12-14T03:39:45;100254.81;;;2.44;100.00
78144;BME280;67394;52.522;13.622;2023-12-14T03:42:11;100263.38;;;2.49;100.00
78144;BME280;67394;52.522;13.622;2023-12-14T03:44:38;100255.84;;;2.50;100.00
78144;BME280;67394;52.522;13.622;2023-12-14T03:47:04;100258.19;;;2.44;100.00
78144;BME280;67394;52.522;13.622;2023-12-14T03:49:36;100263.31;;;2.46;100.00
78144;BME280;67394;52.522;13.622;2023-12-14T03:52:04;100265.28;;;2.57;100.00
78144;BME280;67394;52.522;13.622;2023-12-14T03:54:30;100270.13;;;2.48;100.00
78144;BME280;67394;52.522;13.622;2023-12-14T03:56:57;100264.16;;;2.46;100.00
78144;BME280;67394;52.522;13.622;2023-12-14T03:59:23;100269.16;;;2.45;100.00
78144;BME280;67394;52.522;13.622;2023-12-14T04:01:50;100273.41;;;2.46;100.00
78144;BME280;67394;52.522;13.622;2023-12-14T04:04:17;100280.16;;;2.45;100.00
78144;BME280;67394;52.522;13.622;2023-12-14T04:06:43;100287.78;;;2.47;100.00
78144;BME280;67394;52.522;13.622;2023-12-14T04:09:12;100288.53;;;2.44;100.00
78144;BME280;67394;52.522;13.622;2023-12-14T04:11:39;100296.13;;;2.44;100.00
78144;BME280;67394;52.522;13.622;2023-12-14T04:14:05;100295.25;;;2.42;100.00
78144;BME280;67394;52.522;13.622;2023-12-14T04:16:31;100295.25;;;2.42;100.00
78144;BME280;67394;52.522;13.622;2023-12-14T04:18:58;100297.75;;;2.41;100.00
78144;BME280;67394;52.522;13.622;2023-12-14T04:21:25;100303.66;;;2.41;100.00
78144;BME280;67394;52.522;13.622;2023-12-14T04:23:51;100307.06;;;2.42;100.00
78144;BME280;67394;52.522;13.622;2023-12-14T04:26:18;100306.25;;;2.44;100.00
78144;BME280;67394;52.522;13.622;2023-12-14T04:28:44;100309.69;;;2.46;100.00
78144;BME280;67394;52.522;13.622;2023-12-14T04:31:11;100318.03;;;2.44;100.00
78144;BME280;67394;52.522;13.622;2023-12-14T04:33:37;100318.88;;;2.43;100.00
78144;BME280;67394;52.522;13.622;2023-12-14T04:36:05;100314.59;;;2.40;100.00
78144;BME280;67394;52.522;13.622;2023-12-14T04:38:31;100332.34;;;2.42;100.00
78144;BME280;67394;52.522;13.622;2023-12-14T04:40:58;100339.13;;;2.43;100.00
78144;BME280;67394;52.522;13.622;2023-12-14T04:43:24;100334.88;;;2.42;100.00
78144;BME280;67394;52.522;13.622;2023-12-14T04:45:51;100341.66;;;2.44;100.00
78144;BME280;67394;52.522;13.622;2023-12-14T04:48:17;100347.63;;;2.46;100.00
78144;BME280;67394;52.522;13.622;2023-12-14T04:50:44;100343.31;;;2.42;100.00
78144;BME280;67394;52.522;13.622;2023-12-14T04:53:10;100350.09;;;2.43;100.00
78144;BME280;67394;52.522;13.622;2023-12-14T04:55:37;100350.19;;;2.48;100.00
78144;BME280;67394;52.522;13.622;2023-12-14T04:58:05;100345.91;;;2.45;100.00
78144;BME280;67394;52.522;13.622;2023-12-14T05:00:31;100349.28;;;2.46;100.00
78144;BME280;67394;52.522;13.622;2023-12-14T05:02:58;100352.63;;;2.45;100.00
78144;BME280;67394;52.522;13.622;2023-12-14T05:05:25;100363.59;;;2.45;100.00
78144;BME280;67394;52.522;13.622;2023-12-14T05:07:52;100361.88;;;2.44;100.00
78144;BME280;67394;52.522;13.622;2023-12-14T05:10:18;100368.66;;;2.45;100.00
78144;BME280;67394;52.522;13.622;2023-12-14T05:12:45;100368.81;;;2.50;100.00
78144;BME280;67394;52.522;13.622;2023-12-14T05:15:12;100368.00;;;2.51;100.00
78144;BME280;67394;52.522;13.622;2023-12-14T05:17:38;100376.44;;;2.51;100.00
78144;BME280;67394;52.522;13.622;2023-12-14T05:20:07;100378.81;;;2.47;100.00
78144;BME280;67394;52.522;13.622;2023-12-14T05:22:34;100380.50;;;2.46;100.00
78144;BME280;67394;52.522;13.622;2023-12-14T05:25:02;100379.72;;;2.49;100.00
78144;BME280;67394;52.522;13.622;2023-12-14T05:27:29;100389.84;;;2.49;100.00
78144;BME280;67394;52.522;13.622;2023-12-14T05:29:55;100392.44;;;2.50;100.00
78144;BME280;67394;52.522;13.622;2023-12-14T05:32:22;100399.09;;;2.48;100.00
78144;BME280;67394;52.522;13.622;2023-12-14T05:34:48;100402.41;;;2.46;100.00
78144;BME280;67394;52.522;13.622;2023-12-14T05:37:15;100415.91;;;2.46;100.00
78144;BME280;67394;52.522;13.622;2023-12-14T05:39:42;100413.41;;;2.48;100.00
78144;BME280;67394;52.522;13.622;2023-12-14T05:42:08;100428.66;;;2.49;100.00
78144;BME280;67394;52.522;13.622;2023-12-14T05:44:35;100436.13;;;2.46;100.00
78144;BME280;67394;52.522;13.622;2023-12-14T05:47:01;100433.66;;;2.48;100.00
78144;BME280;67394;52.522;13.622;2023-12-14T05:49:28;100442.91;;;2.47;100.00
78144;BME280;67394;52.522;13.622;2023-12-14T05:51:54;100442.25;;;2.53;100.00
78144;BME280;67394;52.522;13.622;2023-12-14T05:54:21;100456.63;;;2.54;100.00
78144;BME280;67394;52.522;13.622;2023-12-14T05:56:47;100459.94;;;2.53;100.00
78144;BME280;67394;52.522;13.622;2023-12-14T05:59:14;100465.88;;;2.53;100.00
78144;BME280;67394;52.522;13.622;2023-12-14T06:01:41;100468.34;;;2.52;100.00
78144;BME280;67394;52.522;13.622;2023-12-14T06:04:08;100467.50;;;2.51;100.00
78144;BME280;67394;52.522;13.622;2023-12-14T06:06:34;100465.72;;;2.49;100.00
78144;BME280;67394;52.522;13.622;2023-12-14T06:09:01;100476.81;;;2.52;100.00
78144;BME280;67394;52.522;13.622;2023-12-14T06:11:27;100471.53;;;2.46;100.00
78144;BME280;67394;52.522;13.622;2023-12-14T06:13:54;100476.66;;;2.48;100.00
78144;BME280;67394;52.522;13.622;2023-12-14T06:16:21;100479.22;;;2.49;100.00
78144;BME280;67394;52.522;13.622;2023-12-14T06:18:47;100486.88;;;2.51;100.00
78144;BME280;67394;52.522;13.622;2023-12-14T06:21:14;100483.53;;;2.52;100.00
78144;BME280;67394;52.522;13.622;2023-12-14T06:23:41;100490.31;;;2.53;100.00
78144;BME280;67394;52.522;13.622;2023-12-14T06:26:08;100481.88;;;2.52;100.00
78144;BME280;67394;52.522;13.622;2023-12-14T06:28:34;100491.19;;;2.55;100.00
78144;BME280;67394;52.522;13.622;2023-12-14T06:31:01;100490.31;;;2.54;100.00
78144;BME280;67394;52.522;13.622;2023-12-14T06:33:28;100498.88;;;2.58;100.00
78144;BME280;67394;52.522;13.622;2023-12-14T06:35:55;100502.09;;;2.52;100.00
78144;BME280;67394;52.522;13.622;2023-12-14T06:38:22;100507.06;;;2.49;100.00
78144;BME280;67394;52.522;13.622;2023-12-14T06:40:48;100502.00;;;2.49;100.00
78144;BME280;67394;52.522;13.622;2023-12-14T06:43:15;100505.28;;;2.47;100.00
78144;BME280;67394;52.522;13.622;2023-12-14T06:45:41;100508.00;;;2.53;100.00
78144;BME280;67394;52.522;13.622;2023-12-14T06:48:08;100508.72;;;2.49;100.00
78144;BME280;67394;52.522;13.622;2023-12-14T06:50:34;100514.75;;;2.52;100.00
78144;BME280;67394;52.522;13.622;2023-12-14T06:53:01;100509.63;;;2.51;100.00
78144;BME280;67394;52.522;13.622;2023-12-14T06:55:27;100518.84;;;2.49;100.00
78144;BME280;67394;52.522;13.622;2023-12-14T06:57:54;100529.13;;;2.53;100.00
78144;BME280;67394;52.522;13.622;2023-12-14T07:00:21;100524.88;;;2.52;100.00
78144;BME280;67394;52.522;13.622;2023-12-14T07:02:47;100540.91;;;2.53;100.00
78144;BME280;67394;52.522;13.622;2023-12-14T07:05:14;100538.38;;;2.54;100.00
78144;BME280;67394;52.522;13.622;2023-12-14T07:07:41;100545.16;;;2.54;100.00
78144;BME280;67394;52.522;13.622;2023-12-14T07:10:08;100559.47;;;2.53;100.00
78144;BME280;67394;52.522;13.622;2023-12-14T07:12:34;100562.88;;;2.55;100.00
78144;BME280;67394;52.522;13.622;2023-12-14T07:15:01;100565.38;;;2.54;100.00
78144;BME280;67394;52.522;13.622;2023-12-14T07:17:28;100568.63;;;2.50;100.00
78144;BME280;67394;52.522;13.622;2023-12-14T07:19:55;100576.22;;;2.50;100.00
78144;BME280;67394;52.522;13.622;2023-12-14T07:22:25;100577.94;;;2.51;100.00
78144;BME280;67394;52.522;13.622;2023-12-14T07:24:52;100582.94;;;2.49;100.00
78144;BME280;67394;52.522;13.622;2023-12-14T07:27:25;100590.56;;;2.51;100.00
78144;BME280;67394;52.522;13.622;2023-12-14T07:29:52;100594.03;;;2.53;100.00
78144;BME280;67394;52.522;13.622;2023-12-14T07:32:18;100593.22;;;2.54;100.00
78144;BME280;67394;52.522;13.622;2023-12-14T07:34:47;100609.25;;;2.56;100.00
78144;BME280;67394;52.522;13.622;2023-12-14T07:37:14;100614.38;;;2.57;100.00
78144;BME280;67394;52.522;13.622;2023-12-14T07:39:41;100621.91;;;2.56;100.00
78144;BME280;67394;52.522;13.622;2023-12-14T07:42:07;100627.06;;;2.59;100.00
78144;BME280;67394;52.522;13.622;2023-12-14T07:44:34;100630.38;;;2.56;100.00
78144;BME280;67394;52.522;13.622;2023-12-14T07:47:01;100631.34;;;2.60;100.00
78144;BME280;67394;52.522;13.622;2023-12-14T07:49:31;100632.94;;;2.58;100.00
78144;BME280;67394;52.522;13.622;2023-12-14T07:51:57;100632.19;;;2.61;100.00
78144;BME280;67394;52.522;13.622;2023-12-14T07:54:25;100638.22;;;2.64;100.00
78144;BME280;67394;52.522;13.622;2023-12-14T07:56:52;100639.91;;;2.65;100.00
78144;BME280;67394;52.522;13.622;2023-12-14T07:59:18;100644.09;;;2.63;100.00
78144;BME280;67394;52.522;13.622;2023-12-14T08:01:45;100642.16;;;2.56;100.00
78144;BME280;67394;52.522;13.622;2023-12-14T08:04:11;100650.03;;;2.65;100.00
78144;BME280;67394;52.522;13.622;2023-12-14T08:06:38;100662.59;;;2.62;100.00
78144;BME280;67394;52.522;13.622;2023-12-14T08:09:06;100671.81;;;2.60;100.00
78144;BME280;67394;52.522;13.622;2023-12-14T08:11:33;100663.41;;;2.61;100.00
78144;BME280;67394;52.522;13.622;2023-12-14T08:13:59;100673.53;;;2.61;100.00
78144;BME280;67394;52.522;13.622;2023-12-14T08:16:26;100671.81;;;2.60;100.00
78144;BME280;67394;52.522;13.622;2023-12-14T08:18:52;100675.31;;;2.64;100.00
78144;BME280;67394;52.522;13.622;2023-12-14T08:21:19;100675.94;;;2.58;100.00
78144;BME280;67394;52.522;13.622;2023-12-14T08:23:46;100681.06;;;2.60;100.00
78144;BME280;67394;52.522;13.622;2023-12-14T08:26:12;100683.50;;;2.56;100.00
78144;BME280;67394;52.522;13.622;2023-12-14T08:28:39;100687.91;;;2.62;100.00
78144;BME280;67394;52.522;13.622;2023-12-14T08:31:06;100684.63;;;2.66;100.00
78144;BME280;67394;52.522;13.622;2023-12-14T08:33:32;100690.63;;;2.68;100.00
78144;BME280;67394;52.522;13.622;2023-12-14T08:35:59;100697.50;;;2.72;100.00
78144;BME280;67394;52.522;13.622;2023-12-14T08:38:26;100704.22;;;2.72;100.00
78144;BME280;67394;52.522;13.622;2023-12-14T08:40:52;100712.78;;;2.75;100.00
78144;BME280;67394;52.522;13.622;2023-12-14T08:43:19;100720.97;;;2.68;100.00
78144;BME280;67394;52.522;13.622;2023-12-14T08:45:45;100724.31;;;2.67;100.00
78144;BME280;67394;52.522;13.622;2023-12-14T08:48:12;100731.09;;;2.68;100.00
78144;BME280;67394;52.522;13.622;2023-12-14T08:50:39;100732.72;;;2.66;100.00
78144;BME280;67394;52.522;13.622;2023-12-14T08:53:05;100736.22;;;2.70;100.00
78144;BME280;67394;52.522;13.622;2023-12-14T08:55:32;100749.63;;;2.67;100.00
78144;BME280;67394;52.522;13.622;2023-12-14T08:57:59;100742.84;;;2.66;100.00
78144;BME280;67394;52.522;13.622;2023-12-14T09:00:25;100748.00;;;2.69;100.00
78144;BME280;67394;52.522;13.622;2023-12-14T09:02:52;100755.47;;;2.65;100.00
78144;BME280;67394;52.522;13.622;2023-12-14T09:05:19;100763.19;;;2.69;100.00
78144;BME280;67394;52.522;13.622;2023-12-14T09:07:46;100763.19;;;2.69;100.00
78144;BME280;67394;52.522;13.622;2023-12-14T09:10:13;100764.72;;;2.64;100.00
78144;BME280;67394;52.522;13.622;2023-12-14T09:12:40;100765.66;;;2.68;100.00
78144;BME280;67394;52.522;13.622;2023-12-14T09:15:07;100765.88;;;2.74;100.00
78144;BME280;67394;52.522;13.622;2023-12-14T09:17:33;100770.16;;;2.76;100.00
78144;BME280;67394;52.522;13.622;2023-12-14T09:20:03;100776.06;;;2.75;100.00
78144;BME280;67394;52.522;13.622;2023-12-14T09:22:31;100782.00;;;2.77;100.00
78144;BME280;67394;52.522;13.622;2023-12-14T09:24:57;100782.72;;;2.73;100.00
78144;BME280;67394;52.522;13.622;2023-12-14T09:27:24;100789.28;;;2.68;100.00
78144;BME280;67394;52.522;13.622;2023-12-14T09:29:51;100801.19;;;2.71;100.00
78144;BME280;67394;52.522;13.622;2023-12-14T09:32:18;100800.34;;;2.70;100.00
78144;BME280;67394;52.522;13.622;2023-12-14T09:34:44;100806.25;;;2.71;100.00
78144;BME280;67394;52.522;13.622;2023-12-14T09:37:11;100801.94;;;2.68;100.00
78144;BME280;67394;52.522;13.622;2023-12-14T09:39:37;100810.44;;;2.70;100.00
78144;BME280;67394;52.522;13.622;2023-12-14T09:42:05;100806.44;;;2.75;100.00
78144;BME280;67394;52.522;13.622;2023-12-14T09:44:33;100813.19;;;2.76;100.00
78144;BME280;67394;52.522;13.622;2023-12-14T09:47:01;100818.25;;;2.76;100.00
78144;BME280;67394;52.522;13.622;2023-12-14T09:49:29;100824.22;;;2.78;100.00
78144;BME280;67394;52.522;13.622;2023-12-14T09:51:56;100827.47;;;2.74;100.00
78144;BME280;67394;52.522;13.622;2023-12-14T09:54:24;100829.13;;;2.74;100.00
78144;BME280;67394;52.522;13.622;2023-12-14T09:56:51;100834.84;;;2.68;100.00
78144;BME280;67394;52.522;13.622;2023-12-14T09:59:21;100830.50;;;2.64;100.00
78144;BME280;67394;52.522;13.622;2023-12-14T10:01:48;100832.13;;;2.62;100.00
78144;BME280;67394;52.522;13.622;2023-12-14T10:06:56;100832.97;;;2.63;100.00
78144;BME280;67394;52.522;13.622;2023-12-14T10:09:23;100843.16;;;2.64;100.00
78144;BME280;67394;52.522;13.622;2023-12-14T10:12:02;100839.69;;;2.62;100.00
78144;BME280;67394;52.522;13.622;2023-12-14T10:14:29;100842.38;;;2.67;100.00
78144;BME280;67394;52.522;13.622;2023-12-14T10:16:56;100841.50;;;2.66;100.00
78144;BME280;67394;52.522;13.622;2023-12-14T10:19:29;100843.22;;;2.67;100.00
78144;BME280;67394;52.522;13.622;2023-12-14T10:21:56;100843.22;;;2.67;100.00
78144;BME280;67394;52.522;13.622;2023-12-14T10:24:23;100846.69;;;2.69;100.00
78144;BME280;67394;52.522;13.622;2023-12-14T10:26:49;100846.63;;;2.68;100.00
78144;BME280;67394;52.522;13.622;2023-12-14T10:29:16;100849.97;;;2.67;100.00
78144;BME280;67394;52.522;13.622;2023-12-14T10:31:43;100850.94;;;2.70;100.00
78144;BME280;67394;52.522;13.622;2023-12-14T10:34:10;100857.16;;;2.80;100.00
78144;BME280;67394;52.522;13.622;2023-12-14T10:36:37;100860.56;;;2.80;100.00
78144;BME280;67394;52.522;13.622;2023-12-14T10:39:04;100862.28;;;2.81;100.00
78144;BME280;67394;52.522;13.622;2023-12-14T10:41:33;100870.00;;;2.84;100.00
78144;BME280;67394;52.522;13.622;2023-12-14T10:44:00;100871.72;;;2.85;100.00
78144;BME280;67394;52.522;13.622;2023-12-14T10:46:48;100873.91;;;2.76;100.00
78144;BME280;67394;52.522;13.622;2023-12-14T10:49:16;100871.38;;;2.76;100.00
78144;BME280;67394;52.522;13.622;2023-12-14T10:51:42;100878.28;;;2.80;100.00
78144;BME280;67394;52.522;13.622;2023-12-14T10:54:14;100880.06;;;2.83;100.00
78144;BME280;67394;52.522;13.622;2023-12-14T10:56:42;100880.00;;;2.81;100.00
78144;BME280;67394;52.522;13.622;2023-12-14T10:59:08;100881.63;;;2.79;100.00
78144;BME280;67394;52.522;13.622;2023-12-14T11:01:35;100884.25;;;2.82;100.00
78144;BME280;67394;52.522;13.622;2023-12-14T11:04:01;100883.47;;;2.83;100.00
78144;BME280;67394;52.522;13.622;2023-12-14T11:06:33;100884.94;;;2.78;100.00
78144;BME280;67394;52.522;13.622;2023-12-14T11:09:04;100894.44;;;2.84;100.00
78144;BME280;67394;52.522;13.622;2023-12-14T11:14:20;100893.66;;;2.86;100.00
78144;BME280;67394;52.522;13.622;2023-12-14T11:16:51;100897.06;;;2.87;100.00
78144;BME280;67394;52.522;13.622;2023-12-14T11:24:31;100902.41;;;2.94;100.00
78144;BME280;67394;52.522;13.622;2023-12-14T11:26:58;100906.16;;;3.06;100.00
78144;BME280;67394;52.522;13.622;2023-12-14T11:29:28;100909.69;;;3.11;100.00
78144;BME280;67394;52.522;13.622;2023-12-14T11:31:55;100908.19;;;3.16;100.00
78144;BME280;67394;52.522;13.622;2023-12-14T11:34:24;100912.41;;;3.15;100.00
78144;BME280;67394;52.522;13.622;2023-12-14T11:36:51;100908.19;;;3.16;100.00
78144;BME280;67394;52.522;13.622;2023-12-14T11:39:17;100915.88;;;3.19;100.00
78144;BME280;67394;52.522;13.622;2023-12-14T11:42:01;100924.25;;;3.16;100.00
78144;BME280;67394;52.522;13.622;2023-12-14T11:44:28;100921.53;;;3.12;100.00
78144;BME280;67394;52.522;13.622;2023-12-14T11:46:56;100931.78;;;3.15;100.00
78144;BME280;67394;52.522;13.622;2023-12-14T11:49:26;100930.94;;;3.14;100.00
78144;BME280;67394;52.522;13.622;2023-12-14T11:51:56;100932.72;;;3.18;100.00
78144;BME280;67394;52.522;13.622;2023-12-14T11:54:23;100942.22;;;3.24;100.00
78144;BME280;67394;52.522;13.622;2023-12-14T11:56:50;100944.59;;;3.19;100.00
78144;BME280;67394;52.522;13.622;2023-12-14T11:59:18;100946.00;;;3.11;100.00
78144;BME280;67394;52.522;13.622;2023-12-14T12:01:58;100948.59;;;3.13;100.00
78144;BME280;67394;52.522;13.622;2023-12-14T12:04:26;100956.13;;;3.11;100.00
78144;BME280;67394;52.522;13.622;2023-12-14T12:09:55;100959.66;;;3.15;100.00
78144;BME280;67394;52.522;13.622;2023-12-14T12:12:22;100965.47;;;3.12;100.00
78144;BME280;67394;52.522;13.622;2023-12-14T12:14:50;100966.25;;;3.11;100.00
78144;BME280;67394;52.522;13.622;2023-12-14T12:17:18;100965.50;;;3.14;100.00
78144;BME280;67394;52.522;13.622;2023-12-14T12:19:45;100969.53;;;3.09;100.00
78144;BME280;67394;52.522;13.622;2023-12-14T12:22:12;100975.41;;;3.08;100.00
78144;BME280;67394;52.522;13.622;2023-12-14T12:24:38;100977.91;;;3.06;100.00
78144;BME280;67394;52.522;13.622;2023-12-14T12:27:07;100977.13;;;3.07;100.00
78144;BME280;67394;52.522;13.622;2023-12-14T12:29:34;100973.72;;;3.07;100.00
78144;BME280;67394;52.522;13.622;2023-12-14T12:32:00;100980.59;;;3.11;100.00
78144;BME280;67394;52.522;13.622;2023-12-14T12:34:27;100979.03;;;3.14;100.00
78144;BME280;67394;52.522;13.622;2023-12-14T12:36:54;100983.94;;;3.10;100.00
78144;BME280;67394;52.522;13.622;2023-12-14T12:39:21;100991.59;;;3.11;100.00
78144;BME280;67394;52.522;13.622;2023-12-14T12:41:47;100992.50;;;3.13;100.00
78144;BME280;67394;52.522;13.622;2023-12-14T12:44:14;101002.44;;;3.07;100.00
78144;BME280;67394;52.522;13.622;2023-12-14T12:46:41;101000.00;;;3.10;100.00
78144;BME280;67394;52.522;13.622;2023-12-14T12:49:08;100996.59;;;3.10;100.00
78144;BME280;67394;52.522;13.622;2023-12-14T12:51:35;101005.81;;;3.08;100.00
78144;BME280;67394;52.522;13.622;2023-12-14T12:54:02;101007.31;;;3.03;100.00